Time;durP1;ratioP1;P1;durP2;ratioP2;P2;SDS_P1;SDS_P2;PMS_P1;PMS_P2;Temp;Humidity;BMP_temperature;BMP_pressure;BME280_temperature;BME280_humidity;BME280_pressure;Samples;Min_cycle;Max_cycle;Signal;HPM_P1;HPM_P2
2024/04/17 00:00:27;;;;;;;;;8.00;7.00;;;;;1.78;87.65;98936.13;112958;230;168978;-55
2024/04/17 00:03:27;;;;;;;;;12.25;9.25;;;;;1.77;87.65;98936.16;113078;227;40997;-56
2024/04/17 00:06:06;;;;;;;;;9.00;7.50;;;;;1.77;87.72;98938.42;113123;231;39839;-56
2024/04/17 00:08:45;;;;;;;;;9.33;8.00;;;;;1.82;87.76;98933.15;113130;231;41004;-56
2024/04/17 00:11:24;;;;;;;;;10.00;8.00;;;;;1.81;87.73;98935.05;113214;231;40740;-56
2024/04/17 00:13:58;;;;;;;;;9.00;7.00;;;;;1.78;87.75;98938.15;112877;227;171841;-59
2024/04/17 00:16:40;;;;;;;;;11.25;9.00;;;;;1.75;87.82;98936.33;113196;228;40198;-59
2024/04/17 00:19:16;;;;;;;;;11.00;9.00;;;;;1.74;87.82;98934.36;112943;228;169091;-58
2024/04/17 00:21:51;;;;;;;;;16.33;12.67;;;;;1.75;87.84;98934.39;113005;229;41215;-58
2024/04/17 00:24:29;;;;;;;;;13.00;8.50;;;;;1.72;87.86;98932.04;112638;229;169352;-55
2024/04/17 00:27:08;;;;;;;;;14.75;11.00;;;;;1.66;87.84;98937.34;113049;228;42032;-56
2024/04/17 00:29:45;;;;;;;;;13.50;10.00;;;;;1.70;87.81;98944.34;113112;228;40239;-56
2024/04/17 00:32:21;;;;;;;;;11.00;9.00;;;;;1.68;87.89;98950.15;112728;229;169507;-55
2024/04/17 00:34:55;;;;;;;;;11.00;8.00;;;;;1.65;87.84;98944.55;113108;228;41149;-55
2024/04/17 00:37:42;;;;;;;;;9.00;8.00;;;;;1.61;87.92;98942.70;112780;229;193856;-55
2024/04/17 00:40:32;;;;;;;;;13.50;11.50;;;;;1.62;87.95;98945.20;113083;228;39967;-57
2024/04/17 00:43:13;;;;;;;;;11.00;8.50;;;;;1.64;88.13;98943.92;112898;227;169350;-57
2024/04/17 00:45:58;;;;;;;;;11.67;9.67;;;;;1.64;88.18;98936.11;112869;227;40447;-57
2024/04/17 00:48:40;;;;;;;;;12.00;10.00;;;;;1.69;88.18;98936.83;112961;231;169846;-54
2024/04/17 00:51:20;;;;;;;;;9.00;7.00;;;;;1.70;88.39;98937.30;113050;229;41744;-54
2024/04/17 00:54:00;;;;;;;;;11.00;9.00;;;;;1.70;88.44;98937.46;113196;228;40304;-56
2024/04/17 00:56:41;;;;;;;;;6.50;5.50;;;;;1.69;88.56;98936.88;112941;229;40363;-57
2024/04/17 00:59:20;;;;;;;;;9.00;7.75;;;;;1.73;88.73;98935.83;113145;231;40659;-55
2024/04/17 01:01:56;;;;;;;;;13.00;9.00;;;;;1.81;88.89;98942.14;112739;229;169124;-55
2024/04/17 01:04:31;;;;;;;;;11.67;8.33;;;;;1.86;88.92;98945.48;112823;229;40791;-57
2024/04/17 01:07:10;;;;;;;;;12.00;10.00;;;;;1.83;88.92;98947.73;112860;228;168944;-57
2024/04/17 01:09:48;;;;;;;;;8.00;7.00;;;;;1.82;88.86;98945.60;113021;227;42132;-55
2024/04/17 01:12:23;;;;;;;;;8.50;7.00;;;;;1.84;89.09;98939.83;112937;231;169254;-55
2024/04/17 01:15:02;;;;;;;;;12.00;9.00;;;;;1.89;89.31;98944.06;112896;229;40477;-54
2024/04/17 01:17:42;;;;;;;;;10.00;8.33;;;;;1.86;89.32;98941.33;113099;231;39921;-53
2024/04/17 01:20:17;;;;;;;;;9.67;8.33;;;;;1.86;89.35;98938.01;112721;229;169170;-55
2024/04/17 01:22:53;;;;;;;;;8.00;6.00;;;;;1.83;89.29;98934.84;113154;228;39868;-55
2024/04/17 01:25:30;;;;;;;;;8.00;7.00;;;;;1.85;89.26;98936.11;113030;228;171967;-58
2024/04/17 01:28:06;;;;;;;;;12.00;9.00;;;;;1.92;89.33;98934.60;113366;227;40283;-56
2024/04/17 01:30:47;;;;;;;;;10.00;9.00;;;;;1.98;89.50;98938.05;112962;231;169227;-55
2024/04/17 01:33:26;;;;;;;;;10.75;9.00;;;;;2.10;89.78;98935.14;113096;231;40274;-58
2024/04/17 01:36:06;;;;;;;;;9.25;7.00;;;;;2.17;89.79;98939.62;113477;231;41802;-59
2024/04/17 01:38:40;;;;;;;;;9.00;7.33;;;;;2.24;89.94;98936.86;113490;228;41596;-58
2024/04/17 01:41:16;;;;;;;;;10.00;7.25;;;;;2.32;90.03;98939.98;113551;227;40475;-59
2024/04/17 01:43:50;;;;;;;;;12.00;9.75;;;;;2.42;90.00;98934.16;113027;229;169071;-55
2024/04/17 01:46:27;;;;;;;;;8.00;6.00;;;;;2.52;90.05;98928.38;112836;227;40264;-55
2024/04/17 01:49:03;;;;;;;;;9.00;7.33;;;;;2.56;90.20;98923.98;113071;231;169079;-58
2024/04/17 01:51:39;;;;;;;;;11.33;8.67;;;;;2.59;90.15;98924.39;113358;230;41706;-59
2024/04/17 01:54:14;;;;;;;;;11.25;9.00;;;;;2.59;90.08;98923.27;113238;227;40946;-55
2024/04/17 01:56:53;;;;;;;;;9.00;8.00;;;;;2.58;90.16;98920.02;112899;231;39324;-54
2024/04/17 01:59:30;;;;;;;;;6.00;5.00;;;;;2.58;90.11;98919.32;113143;227;39967;-54
2024/04/17 02:02:06;;;;;;;;;7.00;6.00;;;;;2.58;90.26;98916.62;112932;228;169058;-54
2024/04/17 02:04:43;;;;;;;;;11.00;9.00;;;;;2.60;90.28;98909.27;113150;231;39825;-55
2024/04/17 02:07:17;;;;;;;;;11.67;8.00;;;;;2.61;90.18;98908.63;112919;231;169264;-55
2024/04/17 02:09:55;;;;;;;;;10.00;8.25;;;;;2.58;90.21;98904.02;113473;230;41362;-58
2024/04/17 02:12:32;;;;;;;;;13.50;9.50;;;;;2.57;89.98;98908.27;113222;227;169681;-58
2024/04/17 02:15:08;;;;;;;;;8.00;7.00;;;;;2.57;90.03;98909.46;113178;228;40483;-57
2024/04/17 02:17:47;;;;;;;;;8.00;6.00;;;;;2.50;90.08;98901.06;113180;228;40820;-56
2024/04/17 02:20:30;;;;;;;;;11.50;9.00;;;;;2.43;90.07;98894.58;112966;228;169079;-57
2024/04/17 02:23:06;;;;;;;;;10.00;8.00;;;;;2.38;89.95;98888.36;113159;230;40715;-55
2024/04/17 02:25:49;;;;;;;;;10.33;8.00;;;;;2.31;89.96;98887.41;112921;230;169700;-54
2024/04/17 02:28:26;;;;;;;;;10.00;7.00;;;;;2.27;90.02;98882.94;113180;227;40104;-58
2024/04/17 02:31:04;;;;;;;;;7.00;6.00;;;;;2.23;89.94;98882.83;113207;227;169202;-59
2024/04/17 02:33:47;;;;;;;;;10.00;8.00;;;;;2.18;89.87;98886.77;113223;230;41110;-55
2024/04/17 02:36:22;;;;;;;;;10.00;7.00;;;;;2.11;89.87;98884.59;112917;230;169337;-55
2024/04/17 02:38:58;;;;;;;;;10.00;7.50;;;;;2.04;89.76;98882.77;113086;231;40942;-54
2024/04/17 02:41:35;;;;;;;;;8.00;6.00;;;;;1.97;89.75;98882.25;113053;231;40236;-54
2024/04/17 02:44:09;;;;;;;;;6.00;5.00;;;;;1.91;89.92;98881.54;113046;228;168841;-58
2024/04/17 02:46:46;;;;;;;;;8.00;7.00;;;;;1.83;90.06;98878.88;113399;227;39932;-58
2024/04/17 02:49:19;;;;;;;;;9.00;7.00;;;;;1.78;89.97;98880.09;113239;227;168957;-58
2024/04/17 02:51:53;;;;;;;;;6.00;5.67;;;;;1.73;90.05;98882.66;113344;231;40137;-59
2024/04/17 02:54:30;;;;;;;;;7.33;6.67;;;;;1.68;89.93;98878.34;113051;228;169659;-57
2024/04/17 02:57:05;;;;;;;;;7.00;6.00;;;;;1.66;89.96;98879.69;113142;228;41674;-57
2024/04/17 02:59:40;;;;;;;;;8.00;6.00;;;;;1.62;90.11;98880.89;113189;230;41595;-54
2024/04/17 03:02:22;;;;;;;;;8.00;6.00;;;;;1.57;90.10;98883.36;112939;228;169348;-54
2024/04/17 03:04:56;;;;;;;;;10.50;7.00;;;;;1.55;89.99;98881.80;113102;228;40939;-54
2024/04/17 03:07:33;;;;;;;;;7.00;5.67;;;;;1.51;89.99;98877.64;112917;231;169107;-54
2024/04/17 03:10:10;;;;;;;;;10.00;7.00;;;;;1.55;90.07;98880.01;113059;227;40057;-54
2024/04/17 03:12:48;;;;;;;;;8.00;7.00;;;;;1.57;90.03;98879.63;112897;227;169397;-53
2024/04/17 03:15:31;;;;;;;;;13.67;9.00;;;;;1.54;90.10;98879.05;113054;228;40652;-54
2024/04/17 03:18:08;;;;;;;;;12.00;8.00;;;;;1.51;90.11;98882.98;113124;231;40711;-55
2024/04/17 03:20:54;;;;;;;;;8.00;6.00;;;;;1.48;90.10;98881.35;112853;229;40910;-55
2024/04/17 03:23:32;;;;;;;;;9.00;7.00;;;;;1.46;90.21;98885.79;113171;231;40548;-54
2024/04/17 03:26:09;;;;;;;;;11.00;8.00;;;;;1.51;90.36;98888.87;112988;231;169506;-54
2024/04/17 03:28:45;;;;;;;;;10.00;6.00;;;;;1.53;90.45;98885.05;113177;231;40044;-58
2024/04/17 03:31:22;;;;;;;;;9.00;7.00;;;;;1.56;90.49;98892.55;113092;231;169340;-58
2024/04/17 03:34:02;;;;;;;;;7.00;6.00;;;;;1.56;90.52;98895.68;113252;227;41901;-55
2024/04/17 03:36:40;;;;;;;;;12.00;9.00;;;;;1.56;90.53;98898.37;112978;227;169289;-56
2024/04/17 03:39:19;;;;;;;;;10.00;8.00;;;;;1.60;90.63;98895.56;113176;228;40412;-55
2024/04/17 03:41:57;;;;;;;;;13.00;10.00;;;;;1.64;90.63;98905.27;113123;228;40651;-55
2024/04/17 03:44:37;;;;;;;;;11.00;9.00;;;;;1.73;90.66;98912.30;112952;227;169472;-58
2024/04/17 03:47:14;;;;;;;;;12.00;8.00;;;;;1.82;90.80;98909.33;113100;227;40934;-58
2024/04/17 03:49:53;;;;;;;;;10.00;7.33;;;;;1.92;90.93;98911.42;112990;228;169342;-55
2024/04/17 03:52:37;;;;;;;;;12.00;9.00;;;;;1.94;90.91;98914.59;113120;231;41200;-55
2024/04/17 03:55:11;;;;;;;;;11.00;9.00;;;;;1.95;90.86;98916.07;112920;227;194137;-57
2024/04/17 03:57:45;;;;;;;;;10.00;7.75;;;;;1.93;90.89;98919.08;113075;230;39822;-58
2024/04/17 04:00:20;;;;;;;;;9.67;7.00;;;;;1.91;91.08;98920.55;112975;230;169741;-58
2024/04/17 04:02:55;;;;;;;;;9.00;8.00;;;;;1.97;91.06;98918.60;113093;228;40785;-56
2024/04/17 04:05:32;;;;;;;;;8.25;7.00;;;;;2.03;91.09;98921.38;113106;227;41929;-55
2024/04/17 04:08:13;;;;;;;;;9.67;8.00;;;;;2.10;91.14;98922.19;112964;228;169403;-58
2024/04/17 04:10:49;;;;;;;;;13.67;11.00;;;;;2.17;91.21;98920.60;113208;227;39679;-59
2024/04/17 04:13:23;;;;;;;;;8.00;6.33;;;;;2.35;91.26;98923.05;112947;229;169690;-55
2024/04/17 04:15:58;;;;;;;;;14.25;10.50;;;;;2.62;91.35;98922.27;113084;227;40855;-55
2024/04/17 04:18:37;;;;;;;;;13.00;9.00;;;;;3.00;91.35;98922.96;113002;231;170105;-56
2024/04/17 04:21:21;;;;;;;;;13.67;10.00;;;;;3.51;90.96;98925.41;113134;228;42579;-56
2024/04/17 04:23:58;;;;;;;;;9.00;7.00;;;;;3.83;90.56;98928.26;113168;231;40353;-56
2024/04/17 04:26:32;;;;;;;;;11.50;8.50;;;;;3.88;90.34;98930.32;112909;231;170606;-56
2024/04/17 04:29:08;;;;;;;;;14.00;11.00;;;;;4.16;90.65;98928.65;113112;227;40452;-59
2024/04/17 04:31:43;;;;;;;;;15.25;11.00;;;;;4.92;90.87;98927.83;112940;231;169778;-59
2024/04/17 04:34:17;;;;;;;;;19.50;15.00;;;;;6.30;91.41;98925.07;113157;230;41764;-59
2024/04/17 04:36:57;;;;;;;;;21.00;16.75;;;;;7.78;90.21;98922.62;112976;227;169862;-60
2024/04/17 04:39:33;;;;;;;;;19.00;15.00;;;;;9.14;87.96;98920.30;113165;231;39674;-56
2024/04/17 04:42:08;;;;;;;;;18.67;15.33;;;;;9.36;85.43;98923.23;113089;227;40467;-56
2024/04/17 04:44:45;;;;;;;;;19.00;16.00;;;;;8.87;84.00;98928.85;112904;230;168749;-58
2024/04/17 04:47:25;;;;;;;;;17.00;13.00;;;;;9.22;82.95;98935.12;113113;230;40035;-58
2024/04/17 04:50:02;;;;;;;;;18.00;14.00;;;;;10.58;81.69;98936.66;112777;229;168984;-58
2024/04/17 04:52:42;;;;;;;;;20.00;15.00;;;;;11.36;80.00;98933.44;113113;227;41171;-58
2024/04/17 04:55:25;;;;;;;;;19.33;16.33;;;;;11.70;79.28;98936.27;113017;227;169750;-55
2024/04/17 04:58:06;;;;;;;;;19.00;15.00;;;;;11.94;77.87;98937.27;113191;227;40153;-59
2024/04/17 05:00:42;;;;;;;;;19.00;17.00;;;;;11.98;76.77;98944.02;113224;231;169649;-59
2024/04/17 05:03:18;;;;;;;;;20.00;18.00;;;;;12.06;75.84;98948.14;113356;230;40024;-55
2024/04/17 05:05:52;;;;;;;;;20.25;16.50;;;;;11.62;76.30;98953.61;113143;227;40080;-55
2024/04/17 05:08:26;;;;;;;;;21.00;17.67;;;;;11.95;75.11;98960.67;113010;230;169934;-55
2024/04/17 05:11:04;;;;;;;;;21.75;18.25;;;;;12.03;74.63;98961.05;112793;229;41564;-56
2024/04/17 05:13:42;;;;;;;;;26.00;21.00;;;;;11.86;73.77;98962.26;112949;227;169628;-55
2024/04/17 05:16:19;;;;;;;;;19.00;17.00;;;;;12.10;71.54;98967.77;113091;227;40013;-56
2024/04/17 05:18:58;;;;;;;;;18.00;15.33;;;;;11.64;72.66;98965.62;112917;227;170505;-55
2024/04/17 05:21:42;;;;;;;;;20.00;17.00;;;;;11.95;73.25;98973.84;113101;228;40042;-55
2024/04/17 05:24:21;;;;;;;;;25.00;20.00;;;;;13.20;71.50;98974.83;113037;231;170016;-59
2024/04/17 05:26:59;;;;;;;;;17.67;14.67;;;;;13.57;69.33;98973.94;113166;230;39902;-59
2024/04/17 05:29:40;;;;;;;;;21.00;18.00;;;;;13.44;68.81;98981.45;113154;227;40419;-59
2024/04/17 05:32:21;;;;;;;;;22.50;18.25;;;;;13.28;68.43;98980.70;112909;227;170524;-59
2024/04/17 05:34:59;;;;;;;;;21.25;17.75;;;;;13.30;68.91;98980.41;113145;228;40716;-59
2024/04/17 05:37:38;;;;;;;;;24.33;20.00;;;;;14.02;69.69;98973.14;112954;228;169870;-58
2024/04/17 05:40:14;;;;;;;;;24.00;20.00;;;;;15.03;68.06;98972.13;113221;227;40996;-56
2024/04/17 05:42:50;;;;;;;;;22.00;18.00;;;;;15.58;67.14;98972.95;112989;230;170176;-56
2024/04/17 05:45:27;;;;;;;;;27.67;22.00;;;;;16.05;66.01;98973.85;113446;231;41110;-60
2024/04/17 05:48:06;;;;;;;;;21.50;18.00;;;;;15.39;63.24;98983.55;113493;231;40194;-59
2024/04/17 05:50:44;;;;;;;;;21.67;18.00;;;;;13.95;63.66;98988.36;113223;230;169604;-60
2024/04/17 05:53:21;;;;;;;;;22.00;19.00;;;;;13.38;62.96;98996.42;113296;227;40592;-57
2024/04/17 05:56:05;;;;;;;;;22.00;18.67;;;;;12.57;63.15;98999.05;112901;227;170003;-57
2024/04/17 05:58:39;;;;;;;;;20.67;18.67;;;;;11.87;63.46;99005.60;113122;231;40308;-57
2024/04/17 06:01:21;;;;;;;;;24.00;19.33;;;;;11.26;63.92;99005.94;112948;231;169809;-57
2024/04/17 06:04:04;;;;;;;;;22.75;19.00;;;;;10.66;64.81;99008.98;113062;227;39908;-56
2024/04/17 06:06:38;;;;;;;;;23.75;19.75;;;;;10.07;65.73;99003.61;112892;227;169958;-55
2024/04/17 06:09:12;;;;;;;;;21.25;17.25;;;;;9.87;66.30;99009.20;113071;227;41064;-55
2024/04/17 06:11:53;;;;;;;;;26.00;18.00;;;;;9.66;66.84;99010.96;112815;229;41261;-56
2024/04/17 06:14:29;;;;;;;;;21.25;18.50;;;;;9.66;66.94;99009.33;112934;228;169500;-54
2024/04/17 06:17:09;;;;;;;;;24.25;19.00;;;;;9.51;67.85;99008.39;113119;227;41491;-54
2024/04/17 06:19:43;;;;;;;;;20.33;16.00;;;;;9.53;68.84;99006.86;112924;228;169260;-54
2024/04/17 06:22:21;;;;;;;;;16.67;13.33;;;;;9.62;69.33;99008.36;113084;231;41024;-54
2024/04/17 06:24:57;;;;;;;;;22.00;19.00;;;;;9.64;69.98;99006.52;112856;231;169660;-57
2024/04/17 06:27:34;;;;;;;;;20.00;15.00;;;;;9.79;69.68;99007.46;112971;227;42105;-58
2024/04/17 06:30:11;;;;;;;;;19.25;16.00;;;;;9.66;69.97;99016.31;113199;231;40538;-54
2024/04/17 06:32:52;;;;;;;;;16.67;13.67;;;;;9.63;70.06;99021.09;112968;230;169173;-55
2024/04/17 06:35:31;;;;;;;;;18.50;15.00;;;;;9.50;70.15;99026.23;113118;227;40855;-58
2024/04/17 06:38:08;;;;;;;;;18.00;16.00;;;;;9.56;70.34;99028.23;112971;227;169842;-57
2024/04/17 06:40:46;;;;;;;;;19.00;14.75;;;;;9.56;71.04;99024.58;113166;227;41098;-57
2024/04/17 06:43:25;;;;;;;;;20.00;16.00;;;;;9.73;71.04;99020.66;112988;231;169482;-54
2024/04/17 06:46:04;;;;;;;;;19.00;15.00;;;;;10.05;71.24;99021.47;113040;227;40672;-54
2024/04/17 06:48:41;;;;;;;;;16.00;14.00;;;;;10.32;71.48;99023.93;112212;230;813637;-59
2024/04/17 06:51:19;;;;;;;;;21.00;15.00;;;;;10.77;70.99;99025.54;112985;228;40977;-59
2024/04/17 06:53:57;;;;;;;;;18.00;14.00;;;;;11.15;70.49;99026.00;113167;230;41410;-57
2024/04/17 06:56:34;;;;;;;;;15.25;12.50;;;;;11.05;70.42;99026.48;112921;227;170148;-57
2024/04/17 06:59:16;;;;;;;;;17.75;15.00;;;;;10.98;70.17;99028.20;113076;227;40924;-55
2024/04/17 07:01:59;;;;;;;;;15.00;13.00;;;;;10.94;69.83;99034.06;112918;230;169555;-56
2024/04/17 07:04:37;;;;;;;;;16.00;14.00;;;;;10.72;69.93;99039.25;113111;230;41395;-57
2024/04/17 07:07:18;;;;;;;;;15.00;12.00;;;;;10.62;69.97;99042.02;112896;230;169554;-57
2024/04/17 07:09:51;;;;;;;;;20.67;16.00;;;;;10.51;69.52;99046.10;113155;231;40100;-55
2024/04/17 07:12:31;;;;;;;;;15.00;13.00;;;;;10.36;69.44;99044.91;112968;228;169599;-55
2024/04/17 07:15:07;;;;;;;;;15.33;13.33;;;;;10.39;69.99;99049.21;113104;231;40021;-56
2024/04/17 07:17:47;;;;;;;;;18.00;14.00;;;;;10.42;70.06;99053.48;113104;227;41742;-56
2024/04/17 07:20:25;;;;;;;;;12.67;11.00;;;;;10.40;70.12;99050.11;112984;231;169604;-58
2024/04/17 07:23:05;;;;;;;;;13.50;12.00;;;;;10.47;70.39;99047.39;113199;228;40607;-55
2024/04/17 07:25:45;;;;;;;;;10.00;9.00;;;;;10.73;70.03;99045.88;112922;228;169848;-55
2024/04/17 07:28:25;;;;;;;;;11.33;9.67;;;;;11.05;69.07;99041.02;113101;227;41825;-54
2024/04/17 07:31:10;;;;;;;;;15.75;11.25;;;;;11.16;69.83;99033.89;112892;228;169792;-59
2024/04/17 07:33:50;;;;;;;;;15.00;12.00;;;;;11.60;69.84;99033.24;113041;228;40314;-58
2024/04/17 07:36:31;;;;;;;;;14.00;13.00;;;;;12.26;69.12;99033.67;112924;228;169746;-57
2024/04/17 07:39:11;;;;;;;;;17.33;13.33;;;;;12.92;68.52;99029.34;113105;231;40721;-59
2024/04/17 07:41:52;;;;;;;;;14.33;12.33;;;;;13.55;67.91;99033.86;113177;227;40365;-59
2024/04/17 07:44:31;;;;;;;;;16.33;13.33;;;;;14.07;67.58;99027.93;113022;228;169735;-55
2024/04/17 07:47:08;;;;;;;;;14.00;12.00;;;;;14.81;66.84;99025.50;113097;228;40916;-55
2024/04/17 07:49:51;;;;;;;;;16.00;14.00;;;;;15.25;65.79;99029.71;112969;228;169840;-56
2024/04/17 07:52:32;;;;;;;;;13.00;11.00;;;;;15.56;64.34;99027.92;113147;231;40395;-55
2024/04/17 07:55:08;;;;;;;;;11.00;9.00;;;;;14.59;62.56;99037.52;112916;227;169412;-55
2024/04/17 07:57:49;;;;;;;;;11.00;9.00;;;;;13.76;61.84;99046.31;113070;231;41786;-56
2024/04/17 08:00:29;;;;;;;;;10.33;9.00;;;;;13.10;62.09;99047.73;112922;231;170734;-58
2024/04/17 08:03:03;;;;;;;;;11.00;8.00;;;;;12.80;62.67;99046.25;113111;228;40791;-58
2024/04/17 08:05:46;;;;;;;;;9.25;8.00;;;;;12.70;61.93;99049.80;113077;231;39921;-57
2024/04/17 08:08:25;;;;;;;;;11.00;9.33;;;;;12.40;62.05;99053.20;112953;231;169204;-60
2024/04/17 08:11:16;;;;;;;;;14.00;11.00;;;;;11.95;62.35;99054.12;113118;231;40289;-58
2024/04/17 08:13:58;;;;;;;;;12.67;10.00;;;;;11.75;62.87;99060.23;112985;231;169527;-59
2024/04/17 08:16:42;;;;;;;;;10.00;8.50;;;;;11.63;63.03;99059.13;113114;227;41805;-58
2024/04/17 08:19:16;;;;;;;;;10.67;9.67;;;;;11.34;63.54;99059.63;113038;227;169274;-58
2024/04/17 08:21:53;;;;;;;;;10.25;9.00;;;;;11.36;64.13;99057.43;113130;228;41579;-58
2024/04/17 08:24:26;;;;;;;;;11.00;9.00;;;;;11.40;64.39;99061.26;113057;231;169796;-59
2024/04/17 08:27:09;;;;;;;;;11.00;7.33;;;;;11.37;64.16;99062.09;113233;228;40313;-59
2024/04/17 08:29:46;;;;;;;;;12.00;10.33;;;;;11.12;64.21;99064.33;113238;227;40300;-59
2024/04/17 08:32:22;;;;;;;;;13.00;10.00;;;;;11.14;64.90;99064.56;113082;231;169562;-59
2024/04/17 08:34:59;;;;;;;;;12.00;10.00;;;;;11.32;65.15;99065.95;113125;228;41298;-54
2024/04/17 08:37:39;;;;;;;;;14.00;11.00;;;;;11.44;64.66;99069.66;112656;229;169697;-54
2024/04/17 08:40:17;;;;;;;;;13.00;10.00;;;;;11.07;64.81;99072.91;113060;231;40248;-57
2024/04/17 08:43:03;;;;;;;;;13.00;11.00;;;;;10.91;64.67;99073.91;112961;228;169783;-56
2024/04/17 08:45:48;;;;;;;;;10.50;9.00;;;;;10.55;64.82;99077.61;113104;230;39929;-58
2024/04/17 08:48:30;;;;;;;;;11.00;9.00;;;;;10.31;65.30;99079.64;113097;230;169624;-55
2024/04/17 08:51:10;;;;;;;;;14.00;11.00;;;;;10.29;65.40;99079.28;113061;228;41532;-55
2024/04/17 08:53:51;;;;;;;;;10.00;9.00;;;;;10.30;65.67;99085.11;113155;227;39775;-54
2024/04/17 08:56:30;;;;;;;;;11.00;9.00;;;;;10.38;66.21;99086.67;112948;227;169376;-54
2024/04/17 08:59:04;;;;;;;;;11.00;9.50;;;;;10.49;66.66;99086.41;113141;230;42215;-56
2024/04/17 09:01:42;;;;;;;;;9.00;8.00;;;;;10.57;66.61;99081.03;112965;227;170018;-57
2024/04/17 09:04:21;;;;;;;;;10.67;8.33;;;;;10.94;66.89;99081.91;113227;227;40661;-59
2024/04/17 09:06:57;;;;;;;;;10.00;9.00;;;;;11.20;66.65;99079.20;113016;231;169738;-59
2024/04/17 09:09:40;;;;;;;;;13.00;10.00;;;;;11.40;66.54;99085.71;113151;230;40137;-55
2024/04/17 09:12:17;;;;;;;;;10.00;8.00;;;;;11.50;66.44;99087.45;113062;230;40014;-58
2024/04/17 09:14:57;;;;;;;;;11.25;9.75;;;;;11.54;66.16;99086.08;113026;230;169189;-60
2024/04/17 09:17:35;;;;;;;;;10.33;8.67;;;;;11.55;66.54;99088.15;113189;227;40783;-59
2024/04/17 09:20:11;;;;;;;;;10.75;9.00;;;;;11.63;66.60;99092.34;112961;228;169453;-53
2024/04/17 09:22:47;;;;;;;;;12.00;10.00;;;;;11.74;66.41;99096.04;113086;227;39986;-54
2024/04/17 09:25:27;;;;;;;;;13.00;10.50;;;;;11.55;66.75;99097.19;112946;227;169682;-54
2024/04/17 09:28:04;;;;;;;;;13.33;10.33;;;;;11.49;66.69;99103.50;113212;227;42193;-56
2024/04/17 09:30:44;;;;;;;;;12.00;10.25;;;;;11.26;66.80;99107.59;113026;227;169897;-56
2024/04/17 09:33:19;;;;;;;;;10.75;9.00;;;;;11.12;66.98;99109.38;113145;228;40884;-57
2024/04/17 09:36:00;;;;;;;;;13.25;10.25;;;;;10.91;67.23;99113.86;113123;227;42028;-57
2024/04/17 09:38:38;;;;;;;;;12.50;9.75;;;;;10.69;67.07;99117.70;112955;228;169569;-59
2024/04/17 09:41:17;;;;;;;;;11.50;8.75;;;;;10.50;67.25;99122.38;113216;227;39849;-59
2024/04/17 09:43:59;;;;;;;;;12.33;10.00;;;;;10.31;67.85;99124.51;112991;228;172408;-56
2024/04/17 09:46:40;;;;;;;;;13.33;10.33;;;;;10.11;68.08;99129.71;113067;230;42089;-56
2024/04/17 09:49:20;;;;;;;;;11.33;9.00;;;;;9.87;68.47;99132.69;112965;227;169678;-55
2024/04/17 09:51:59;;;;;;;;;11.25;9.00;;;;;9.74;68.86;99137.77;113069;231;40546;-54
2024/04/17 09:54:38;;;;;;;;;13.25;10.50;;;;;9.65;69.19;99141.09;113086;228;169202;-58
2024/04/17 09:57:16;;;;;;;;;10.67;8.00;;;;;9.61;69.24;99141.77;113077;227;40124;-56
2024/04/17 09:59:56;;;;;;;;;12.33;10.00;;;;;9.55;69.56;99144.04;113284;227;41663;-58
2024/04/17 10:02:36;;;;;;;;;13.50;11.00;;;;;9.48;70.27;99148.51;113042;230;169353;-58
2024/04/17 10:05:12;;;;;;;;;10.33;8.00;;;;;9.38;70.84;99144.14;113323;227;40603;-59
2024/04/17 10:07:53;;;;;;;;;11.50;8.50;;;;;9.36;71.14;99147.95;112930;231;170030;-54
2024/04/17 10:10:37;;;;;;;;;10.00;8.00;;;;;9.40;71.41;99148.19;113071;230;41515;-56
2024/04/17 10:13:17;;;;;;;;;11.00;10.00;;;;;9.50;71.81;99145.05;112958;228;169469;-56
2024/04/17 10:15:52;;;;;;;;;10.75;8.00;;;;;9.61;71.99;99145.00;113144;227;40073;-55
2024/04/17 10:18:34;;;;;;;;;11.25;9.00;;;;;9.73;72.06;99146.23;113219;228;40691;-59
2024/04/17 10:21:23;;;;;;;;;9.00;7.00;;;;;9.92;72.09;99147.77;112965;229;39900;-58
2024/04/17 10:24:10;;;;;;;;;10.00;8.00;;;;;10.12;71.90;99146.92;113290;227;41875;-57
2024/04/17 10:26:52;;;;;;;;;7.33;6.00;;;;;10.37;71.28;99149.34;112934;231;169402;-57
2024/04/17 10:29:29;;;;;;;;;4.50;4.00;;;;;10.47;71.63;99153.17;113271;227;39864;-55
2024/04/17 10:32:11;;;;;;;;;9.00;6.00;;;;;10.68;71.93;99148.40;112938;227;169385;-54
2024/04/17 10:34:53;;;;;;;;;8.00;7.00;;;;;10.77;71.76;99145.84;113132;230;39903;-59
2024/04/17 10:37:31;;;;;;;;;8.67;7.00;;;;;11.00;71.57;99148.04;112983;227;169099;-56
2024/04/17 10:40:07;;;;;;;;;7.33;5.33;;;;;11.18;71.39;99149.10;113116;227;40667;-56
2024/04/17 10:42:43;;;;;;;;;8.00;6.00;;;;;11.26;70.35;99152.52;112931;228;169450;-55
2024/04/17 10:45:21;;;;;;;;;5.00;4.00;;;;;11.23;69.83;99154.63;113049;231;39672;-57
2024/04/17 10:47:59;;;;;;;;;6.25;4.25;;;;;11.06;69.45;99152.66;113093;227;40108;-57
2024/04/17 10:50:39;;;;;;;;;8.00;6.00;;;;;10.99;69.94;99158.55;112637;229;169436;-55
2024/04/17 10:53:17;;;;;;;;;4.50;4.50;;;;;11.01;70.20;99157.96;113066;228;40269;-57
2024/04/17 10:55:55;;;;;;;;;7.00;6.00;;;;;11.17;70.04;99160.75;112924;231;169373;-57
2024/04/17 10:58:30;;;;;;;;;7.25;5.50;;;;;11.13;69.75;99160.83;113137;227;40293;-58
2024/04/17 11:01:08;;;;;;;;;7.00;6.00;;;;;11.18;69.27;99161.15;112738;229;169272;-57
2024/04/17 11:03:45;;;;;;;;;7.00;5.25;;;;;11.18;69.30;99162.70;113044;227;39976;-54
2024/04/17 11:06:25;;;;;;;;;7.00;6.00;;;;;11.20;69.47;99161.75;113213;231;40286;-60
2024/04/17 11:09:14;;;;;;;;;8.00;7.00;;;;;11.12;69.68;99160.14;112789;231;168827;-54
2024/04/17 11:11:54;;;;;;;;;9.00;7.00;;;;;11.11;69.52;99162.59;113046;228;40226;-55
2024/04/17 11:14:36;;;;;;;;;11.00;9.00;;;;;11.09;69.59;99163.84;112898;231;169160;-55
2024/04/17 11:17:18;;;;;;;;;8.00;7.00;;;;;11.10;69.48;99159.48;113092;227;41545;-55
2024/04/17 11:19:55;;;;;;;;;10.67;8.33;;;;;11.08;69.08;99160.77;112900;227;169288;-55
2024/04/17 11:22:30;;;;;;;;;11.00;9.00;;;;;10.95;69.28;99163.05;113052;228;40967;-55
2024/04/17 11:25:15;;;;;;;;;11.00;8.75;;;;;10.90;69.12;99164.63;112682;229;169658;-57
2024/04/17 11:27:55;;;;;;;;;11.33;9.00;;;;;10.89;69.18;99170.25;113060;231;41796;-55
2024/04/17 11:30:33;;;;;;;;;10.25;8.25;;;;;10.68;69.67;99177.73;113104;227;40163;-57
2024/04/17 11:33:16;;;;;;;;;14.00;10.33;;;;;10.62;69.69;99179.52;112869;229;39899;-59
2024/04/17 11:36:05;;;;;;;;;11.00;9.00;;;;;10.51;70.08;99180.61;113313;227;39720;-59
2024/04/17 11:38:44;;;;;;;;;13.00;10.00;;;;;10.49;70.32;99185.95;113084;231;169597;-55
2024/04/17 11:41:26;;;;;;;;;12.00;9.25;;;;;10.30;70.67;99185.33;113123;228;41132;-56
2024/04/17 11:44:01;;;;;;;;;11.67;10.00;;;;;10.19;70.97;99189.94;112983;231;169631;-54
2024/04/17 11:46:39;;;;;;;;;11.25;8.25;;;;;10.06;71.65;99192.92;113091;227;40643;-55
2024/04/17 11:49:17;;;;;;;;;9.00;7.00;;;;;9.97;71.98;99196.51;112927;227;170988;-57
2024/04/17 11:51:51;;;;;;;;;9.00;7.00;;;;;9.86;72.44;99197.42;113090;231;41004;-57
2024/04/17 11:54:27;;;;;;;;;8.00;6.00;;;;;9.95;72.87;99201.79;113124;231;41227;-58
2024/04/17 11:57:04;;;;;;;;;8.00;7.00;;;;;9.90;73.22;99201.09;112948;231;169164;-59
2024/04/17 11:59:46;;;;;;;;;7.50;6.00;;;;;9.98;73.35;99201.15;113188;230;40156;-54
2024/04/17 12:02:20;;;;;;;;;8.00;7.00;;;;;10.05;73.64;99203.90;112783;229;169769;-55
2024/04/17 12:05:00;;;;;;;;;9.00;7.25;;;;;9.93;73.84;99203.74;113150;231;39881;-57
2024/04/17 12:07:35;;;;;;;;;5.00;4.00;;;;;9.70;73.84;99215.24;112986;231;169177;-57
2024/04/17 12:10:10;;;;;;;;;4.00;3.00;;;;;9.21;73.89;99217.11;113141;231;41535;-57
2024/04/17 12:12:58;;;;;;;;;4.00;4.00;;;;;8.70;74.73;99221.71;112972;227;169160;-56
2024/04/17 12:15:33;;;;;;;;;3.25;3.00;;;;;8.71;75.15;99224.15;113222;231;40295;-59